Terminal Aerodrome Forecast
Issued by NWS

Home | Current Version | Previous Version | Text Only | Print | Product List | Glossary On
Versions: 1 2 3 4 5 6 7 8 9 10 11 12 13 14 15 16 17
000
FTUS44 KJAN 182300
TAFGTR
TAF
KGTR 182339Z 1900/1924 VRB03KT P6SM VCTS SCT040CB BKN100
     FM190130 VRB03KT P6SM SCT100
     FM190700 VRB03KT 4SM BR SKC
     FM191400 10005KT P6SM SCT060=

USA.gov is the U.S. government's official web portal to all federal, state and local government web resources and services.